sensor_id;sensor_type;location;lat;lon;timestamp;temperature;humidity
22035;DHT22;11181;51.002;4.356;2023-02-28T00:00:30;5.80;99.90
22035;DHT22;11181;51.002;4.356;2023-02-28T00:02:57;5.80;99.90
22035;DHT22;11181;51.002;4.356;2023-02-28T00:05:27;5.70;99.90
22035;DHT22;11181;51.002;4.356;2023-02-28T00:07:55;5.70;99.90
22035;DHT22;11181;51.002;4.356;2023-02-28T00:10:24;5.70;99.90
22035;DHT22;11181;51.002;4.356;2023-02-28T00:12:52;5.60;99.90
22035;DHT22;11181;51.002;4.356;2023-02-28T00:15:23;5.60;99.90
22035;DHT22;11181;51.002;4.356;2023-02-28T00:17:50;5.60;99.90
22035;DHT22;11181;51.002;4.356;2023-02-28T00:20:18;5.50;99.90
22035;DHT22;11181;51.002;4.356;2023-02-28T00:22:48;5.50;99.90
22035;DHT22;11181;51.002;4.356;2023-02-28T00:25:17;5.50;99.90
22035;DHT22;11181;51.002;4.356;2023-02-28T00:27:45;5.40;99.90
22035;DHT22;11181;51.002;4.356;2023-02-28T00:30:14;5.40;99.90
22035;DHT22;11181;51.002;4.356;2023-02-28T00:32:41;5.50;99.90
22035;DHT22;11181;51.002;4.356;2023-02-28T00:35:09;5.50;99.90
22035;DHT22;11181;51.002;4.356;2023-02-28T00:37:37;5.50;99.90
22035;DHT22;11181;51.002;4.356;2023-02-28T00:40:07;5.50;99.90
22035;DHT22;11181;51.002;4.356;2023-02-28T00:42:35;5.50;99.90
22035;DHT22;11181;51.002;4.356;2023-02-28T00:45:02;5.60;99.90
22035;DHT22;11181;51.002;4.356;2023-02-28T00:47:30;5.60;99.90
22035;DHT22;11181;51.002;4.356;2023-02-28T00:49:57;5.40;99.90
22035;DHT22;11181;51.002;4.356;2023-02-28T00:52:24;5.40;99.90
22035;DHT22;11181;51.002;4.356;2023-02-28T00:54:51;5.40;99.90
22035;DHT22;11181;51.002;4.356;2023-02-28T00:57:19;5.40;99.90
22035;DHT22;11181;51.002;4.356;2023-02-28T00:59:46;5.40;99.90
22035;DHT22;11181;51.002;4.356;2023-02-28T01:02:13;5.40;99.90
22035;DHT22;11181;51.002;4.356;2023-02-28T01:04:40;5.50;99.90
22035;DHT22;11181;51.002;4.356;2023-02-28T01:07:07;5.40;99.90
22035;DHT22;11181;51.002;4.356;2023-02-28T01:09:34;5.30;99.90
22035;DHT22;11181;51.002;4.356;2023-02-28T01:12:01;5.30;99.90
22035;DHT22;11181;51.002;4.356;2023-02-28T01:14:29;5.40;99.90
22035;DHT22;11181;51.002;4.356;2023-02-28T01:16:56;5.50;99.90
22035;DHT22;11181;51.002;4.356;2023-02-28T01:19:23;5.60;99.90
22035;DHT22;11181;51.002;4.356;2023-02-28T01:21:50;5.50;99.90
22035;DHT22;11181;51.002;4.356;2023-02-28T01:24:17;5.50;99.90
22035;DHT22;11181;51.002;4.356;2023-02-28T01:26:44;5.60;99.90
22035;DHT22;11181;51.002;4.356;2023-02-28T01:29:11;5.50;99.90
22035;DHT22;11181;51.002;4.356;2023-02-28T01:31:39;5.50;99.90
22035;DHT22;11181;51.002;4.356;2023-02-28T01:34:06;5.50;99.90
22035;DHT22;11181;51.002;4.356;2023-02-28T01:36:33;5.30;99.90
22035;DHT22;11181;51.002;4.356;2023-02-28T01:39:01;5.10;99.90
22035;DHT22;11181;51.002;4.356;2023-02-28T01:41:30;5.10;99.90
22035;DHT22;11181;51.002;4.356;2023-02-28T01:44:04;5.10;99.90
22035;DHT22;11181;51.002;4.356;2023-02-28T01:46:33;5.10;99.90
22035;DHT22;11181;51.002;4.356;2023-02-28T01:49:13;5.20;99.90
22035;DHT22;11181;51.002;4.356;2023-02-28T01:51:42;5.00;99.90
22035;DHT22;11181;51.002;4.356;2023-02-28T01:54:14;4.90;99.90
22035;DHT22;11181;51.002;4.356;2023-02-28T01:56:46;4.90;99.90
22035;DHT22;11181;51.002;4.356;2023-02-28T01:59:19;4.90;99.90
22035;DHT22;11181;51.002;4.356;2023-02-28T02:01:47;4.80;99.90
22035;DHT22;11181;51.002;4.356;2023-02-28T02:04:16;4.90;99.90
22035;DHT22;11181;51.002;4.356;2023-02-28T02:06:44;4.90;99.90
22035;DHT22;11181;51.002;4.356;2023-02-28T02:09:12;4.80;99.90
22035;DHT22;11181;51.002;4.356;2023-02-28T02:11:41;4.80;99.90
22035;DHT22;11181;51.002;4.356;2023-02-28T02:14:39;4.80;99.90
22035;DHT22;11181;51.002;4.356;2023-02-28T02:17:23;4.80;99.90
22035;DHT22;11181;51.002;4.356;2023-02-28T02:26:48;4.90;99.90
22035;DHT22;11181;51.002;4.356;2023-02-28T02:29:47;4.60;99.90
22035;DHT22;11181;51.002;4.356;2023-02-28T02:32:35;4.60;99.90
22035;DHT22;11181;51.002;4.356;2023-02-28T02:35:14;4.60;99.90
22035;DHT22;11181;51.002;4.356;2023-02-28T02:37:48;4.70;99.90
22035;DHT22;11181;51.002;4.356;2023-02-28T02:40:18;4.80;99.90
22035;DHT22;11181;51.002;4.356;2023-02-28T02:42:51;4.90;99.90
22035;DHT22;11181;51.002;4.356;2023-02-28T02:45:24;4.90;99.90
22035;DHT22;11181;51.002;4.356;2023-02-28T02:47:53;4.90;99.90
22035;DHT22;11181;51.002;4.356;2023-02-28T02:50:27;4.90;99.90
22035;DHT22;11181;51.002;4.356;2023-02-28T02:52:58;4.90;99.90
22035;DHT22;11181;51.002;4.356;2023-02-28T02:55:27;4.80;99.90
22035;DHT22;11181;51.002;4.356;2023-02-28T02:57:58;4.90;99.90
22035;DHT22;11181;51.002;4.356;2023-02-28T03:00:30;4.80;99.90
22035;DHT22;11181;51.002;4.356;2023-02-28T03:02:58;4.90;99.90
22035;DHT22;11181;51.002;4.356;2023-02-28T03:05:30;5.00;99.90
22035;DHT22;11181;51.002;4.356;2023-02-28T03:07:59;4.90;99.90
22035;DHT22;11181;51.002;4.356;2023-02-28T03:10:37;4.90;99.90
22035;DHT22;11181;51.002;4.356;2023-02-28T03:13:16;4.90;99.90
22035;DHT22;11181;51.002;4.356;2023-02-28T03:15:57;4.80;99.90
22035;DHT22;11181;51.002;4.356;2023-02-28T03:18:31;4.80;99.90
22035;DHT22;11181;51.002;4.356;2023-02-28T03:21:09;4.70;99.90
22035;DHT22;11181;51.002;4.356;2023-02-28T03:23:42;4.80;99.90
22035;DHT22;11181;51.002;4.356;2023-02-28T03:26:16;4.70;99.90
22035;DHT22;11181;51.002;4.356;2023-02-28T03:28:52;4.80;99.90
22035;DHT22;11181;51.002;4.356;2023-02-28T03:31:27;4.80;99.90
22035;DHT22;11181;51.002;4.356;2023-02-28T03:34:03;4.90;99.90
22035;DHT22;11181;51.002;4.356;2023-02-28T03:36:36;4.90;99.90
22035;DHT22;11181;51.002;4.356;2023-02-28T03:39:13;4.60;99.90
22035;DHT22;11181;51.002;4.356;2023-02-28T03:41:44;4.60;99.90
22035;DHT22;11181;51.002;4.356;2023-02-28T03:44:17;4.60;99.90
22035;DHT22;11181;51.002;4.356;2023-02-28T03:46:51;4.60;99.90
22035;DHT22;11181;51.002;4.356;2023-02-28T03:49:23;4.60;99.90
22035;DHT22;11181;51.002;4.356;2023-02-28T03:51:54;4.50;99.90
22035;DHT22;11181;51.002;4.356;2023-02-28T03:54:24;4.50;99.90
22035;DHT22;11181;51.002;4.356;2023-02-28T03:56:56;4.60;99.90
22035;DHT22;11181;51.002;4.356;2023-02-28T03:59:26;4.60;99.90
22035;DHT22;11181;51.002;4.356;2023-02-28T04:01:55;4.60;99.90
22035;DHT22;11181;51.002;4.356;2023-02-28T04:04:24;4.50;99.90
22035;DHT22;11181;51.002;4.356;2023-02-28T04:06:53;4.30;99.90
22035;DHT22;11181;51.002;4.356;2023-02-28T04:09:27;4.20;99.90
22035;DHT22;11181;51.002;4.356;2023-02-28T04:11:54;4.30;99.90
22035;DHT22;11181;51.002;4.356;2023-02-28T04:14:22;4.40;99.90
22035;DHT22;11181;51.002;4.356;2023-02-28T04:16:49;4.50;99.90
22035;DHT22;11181;51.002;4.356;2023-02-28T04:19:17;4.60;99.90
22035;DHT22;11181;51.002;4.356;2023-02-28T04:21:46;4.60;99.90
22035;DHT22;11181;51.002;4.356;2023-02-28T04:24:17;4.60;99.90
22035;DHT22;11181;51.002;4.356;2023-02-28T04:26:46;4.60;99.90
22035;DHT22;11181;51.002;4.356;2023-02-28T04:29:14;4.60;99.90
22035;DHT22;11181;51.002;4.356;2023-02-28T04:31:44;4.60;99.90
22035;DHT22;11181;51.002;4.356;2023-02-28T04:34:11;4.60;99.90
22035;DHT22;11181;51.002;4.356;2023-02-28T04:36:38;4.60;99.90
22035;DHT22;11181;51.002;4.356;2023-02-28T04:39:04;4.60;99.90
22035;DHT22;11181;51.002;4.356;2023-02-28T04:41:33;4.60;99.90
22035;DHT22;11181;51.002;4.356;2023-02-28T04:44:00;4.60;99.90
22035;DHT22;11181;51.002;4.356;2023-02-28T04:46:27;4.60;99.90
22035;DHT22;11181;51.002;4.356;2023-02-28T04:48:54;4.60;99.90
22035;DHT22;11181;51.002;4.356;2023-02-28T04:51:21;4.70;99.90
22035;DHT22;11181;51.002;4.356;2023-02-28T04:53:48;4.70;99.90
22035;DHT22;11181;51.002;4.356;2023-02-28T04:56:17;4.70;99.90
22035;DHT22;11181;51.002;4.356;2023-02-28T04:58:45;4.60;99.90
22035;DHT22;11181;51.002;4.356;2023-02-28T05:01:20;4.40;99.90
22035;DHT22;11181;51.002;4.356;2023-02-28T05:03:48;4.40;99.90
22035;DHT22;11181;51.002;4.356;2023-02-28T05:06:16;4.30;99.90
22035;DHT22;11181;51.002;4.356;2023-02-28T05:08:43;4.20;99.90
22035;DHT22;11181;51.002;4.356;2023-02-28T05:11:15;4.10;99.90
22035;DHT22;11181;51.002;4.356;2023-02-28T05:13:43;4.10;99.90
22035;DHT22;11181;51.002;4.356;2023-02-28T05:16:11;4.20;99.90
22035;DHT22;11181;51.002;4.356;2023-02-28T05:18:38;4.30;99.90
22035;DHT22;11181;51.002;4.356;2023-02-28T05:21:05;4.40;99.90
22035;DHT22;11181;51.002;4.356;2023-02-28T05:23:32;4.40;99.90
22035;DHT22;11181;51.002;4.356;2023-02-28T05:25:59;4.40;99.90
22035;DHT22;11181;51.002;4.356;2023-02-28T05:28:26;4.50;99.90
22035;DHT22;11181;51.002;4.356;2023-02-28T05:30:53;4.60;99.90
22035;DHT22;11181;51.002;4.356;2023-02-28T05:33:21;4.50;99.90
22035;DHT22;11181;51.002;4.356;2023-02-28T05:35:48;4.40;99.90
22035;DHT22;11181;51.002;4.356;2023-02-28T05:38:15;4.40;99.90
22035;DHT22;11181;51.002;4.356;2023-02-28T05:40:43;4.50;99.90
22035;DHT22;11181;51.002;4.356;2023-02-28T05:43:10;4.60;99.90
22035;DHT22;11181;51.002;4.356;2023-02-28T05:45:38;4.60;99.90
22035;DHT22;11181;51.002;4.356;2023-02-28T05:48:05;4.60;99.90
22035;DHT22;11181;51.002;4.356;2023-02-28T05:50:33;4.50;99.90
22035;DHT22;11181;51.002;4.356;2023-02-28T05:53:00;4.40;99.90
22035;DHT22;11181;51.002;4.356;2023-02-28T05:55:27;4.40;99.90
22035;DHT22;11181;51.002;4.356;2023-02-28T05:57:54;4.40;99.90
22035;DHT22;11181;51.002;4.356;2023-02-28T06:00:21;4.50;99.90
22035;DHT22;11181;51.002;4.356;2023-02-28T06:02:48;4.60;99.90
22035;DHT22;11181;51.002;4.356;2023-02-28T06:05:18;4.60;99.90
22035;DHT22;11181;51.002;4.356;2023-02-28T06:07:46;4.70;99.90
22035;DHT22;11181;51.002;4.356;2023-02-28T06:10:13;4.70;99.90
22035;DHT22;11181;51.002;4.356;2023-02-28T06:12:40;4.80;99.90
22035;DHT22;11181;51.002;4.356;2023-02-28T06:15:12;4.60;99.90
22035;DHT22;11181;51.002;4.356;2023-02-28T06:17:40;4.60;99.90
22035;DHT22;11181;51.002;4.356;2023-02-28T06:20:08;4.60;99.90
22035;DHT22;11181;51.002;4.356;2023-02-28T06:22:36;4.60;99.90
22035;DHT22;11181;51.002;4.356;2023-02-28T06:25:06;4.50;99.90
22035;DHT22;11181;51.002;4.356;2023-02-28T06:27:33;4.30;99.90
22035;DHT22;11181;51.002;4.356;2023-02-28T06:30:01;4.30;99.90
22035;DHT22;11181;51.002;4.356;2023-02-28T06:32:29;4.20;99.90
22035;DHT22;11181;51.002;4.356;2023-02-28T06:34:55;4.40;99.90
22035;DHT22;11181;51.002;4.356;2023-02-28T06:37:23;4.60;99.90
22035;DHT22;11181;51.002;4.356;2023-02-28T06:39:51;4.70;99.90
22035;DHT22;11181;51.002;4.356;2023-02-28T06:42:20;4.60;99.90
22035;DHT22;11181;51.002;4.356;2023-02-28T06:44:47;4.60;99.90
22035;DHT22;11181;51.002;4.356;2023-02-28T06:47:14;4.50;99.90
22035;DHT22;11181;51.002;4.356;2023-02-28T06:49:41;4.50;99.90
22035;DHT22;11181;51.002;4.356;2023-02-28T06:52:08;4.60;99.90
22035;DHT22;11181;51.002;4.356;2023-02-28T06:54:36;4.70;99.90
22035;DHT22;11181;51.002;4.356;2023-02-28T06:57:03;4.80;99.90
22035;DHT22;11181;51.002;4.356;2023-02-28T06:59:31;4.80;99.90
22035;DHT22;11181;51.002;4.356;2023-02-28T07:01:58;4.90;99.90
22035;DHT22;11181;51.002;4.356;2023-02-28T07:04:25;5.00;99.90
22035;DHT22;11181;51.002;4.356;2023-02-28T07:06:54;5.00;99.90
22035;DHT22;11181;51.002;4.356;2023-02-28T07:09:21;5.20;99.90
22035;DHT22;11181;51.002;4.356;2023-02-28T07:11:48;5.20;99.90
22035;DHT22;11181;51.002;4.356;2023-02-28T07:14:15;5.00;99.90
22035;DHT22;11181;51.002;4.356;2023-02-28T07:16:43;4.90;99.90
22035;DHT22;11181;51.002;4.356;2023-02-28T07:19:11;5.00;99.90
22035;DHT22;11181;51.002;4.356;2023-02-28T07:21:38;5.10;99.90
22035;DHT22;11181;51.002;4.356;2023-02-28T07:24:05;5.30;99.90
22035;DHT22;11181;51.002;4.356;2023-02-28T07:26:32;5.30;99.90
22035;DHT22;11181;51.002;4.356;2023-02-28T07:29:00;5.40;99.90
22035;DHT22;11181;51.002;4.356;2023-02-28T07:31:27;5.40;99.90
22035;DHT22;11181;51.002;4.356;2023-02-28T07:33:56;5.30;99.90
22035;DHT22;11181;51.002;4.356;2023-02-28T07:36:23;5.40;99.90
22035;DHT22;11181;51.002;4.356;2023-02-28T07:38:49;5.20;99.90
22035;DHT22;11181;51.002;4.356;2023-02-28T07:41:17;5.30;99.90
22035;DHT22;11181;51.002;4.356;2023-02-28T07:43:45;5.30;99.90
22035;DHT22;11181;51.002;4.356;2023-02-28T07:46:14;5.50;99.90
22035;DHT22;11181;51.002;4.356;2023-02-28T07:48:42;5.80;99.90
22035;DHT22;11181;51.002;4.356;2023-02-28T07:51:10;5.90;99.90
22035;DHT22;11181;51.002;4.356;2023-02-28T07:53:37;6.20;99.90
22035;DHT22;11181;51.002;4.356;2023-02-28T07:56:05;6.40;99.90
22035;DHT22;11181;51.002;4.356;2023-02-28T07:58:32;6.50;99.90
22035;DHT22;11181;51.002;4.356;2023-02-28T08:01:05;6.50;99.90
22035;DHT22;11181;51.002;4.356;2023-02-28T08:03:33;6.60;99.90
22035;DHT22;11181;51.002;4.356;2023-02-28T08:05:59;6.50;99.90
22035;DHT22;11181;51.002;4.356;2023-02-28T08:08:29;6.60;99.90
22035;DHT22;11181;51.002;4.356;2023-02-28T08:10:58;6.60;99.90
22035;DHT22;11181;51.002;4.356;2023-02-28T08:13:26;6.80;99.90
22035;DHT22;11181;51.002;4.356;2023-02-28T08:15:54;6.60;99.90
22035;DHT22;11181;51.002;4.356;2023-02-28T08:18:21;6.40;99.90
22035;DHT22;11181;51.002;4.356;2023-02-28T08:20:48;6.70;99.90
22035;DHT22;11181;51.002;4.356;2023-02-28T08:23:15;6.80;99.90
22035;DHT22;11181;51.002;4.356;2023-02-28T08:25:43;6.80;99.90
22035;DHT22;11181;51.002;4.356;2023-02-28T08:28:10;6.10;99.90
22035;DHT22;11181;51.002;4.356;2023-02-28T08:30:37;5.80;99.90
22035;DHT22;11181;51.002;4.356;2023-02-28T08:33:06;5.10;99.90
22035;DHT22;11181;51.002;4.356;2023-02-28T08:35:35;4.80;99.90
22035;DHT22;11181;51.002;4.356;2023-02-28T08:38:02;5.00;99.90
22035;DHT22;11181;51.002;4.356;2023-02-28T08:40:29;4.70;99.90
22035;DHT22;11181;51.002;4.356;2023-02-28T08:42:58;4.60;99.90
22035;DHT22;11181;51.002;4.356;2023-02-28T08:45:25;4.60;99.90
22035;DHT22;11181;51.002;4.356;2023-02-28T08:47:54;4.60;99.90
22035;DHT22;11181;51.002;4.356;2023-02-28T08:50:21;4.90;99.90
22035;DHT22;11181;51.002;4.356;2023-02-28T08:52:48;5.10;99.90
22035;DHT22;11181;51.002;4.356;2023-02-28T08:55:15;5.20;99.90
22035;DHT22;11181;51.002;4.356;2023-02-28T08:57:42;5.20;99.90
22035;DHT22;11181;51.002;4.356;2023-02-28T09:00:11;5.10;99.90
22035;DHT22;11181;51.002;4.356;2023-02-28T09:02:39;4.90;99.90
22035;DHT22;11181;51.002;4.356;2023-02-28T09:05:07;5.10;99.90
22035;DHT22;11181;51.002;4.356;2023-02-28T09:07:34;5.40;99.90
22035;DHT22;11181;51.002;4.356;2023-02-28T09:10:01;5.60;99.90
22035;DHT22;11181;51.002;4.356;2023-02-28T09:12:33;5.90;99.90
22035;DHT22;11181;51.002;4.356;2023-02-28T09:15:00;6.20;99.90
22035;DHT22;11181;51.002;4.356;2023-02-28T09:17:28;6.80;99.90
22035;DHT22;11181;51.002;4.356;2023-02-28T09:19:55;7.10;99.90
22035;DHT22;11181;51.002;4.356;2023-02-28T09:22:25;7.30;99.90
22035;DHT22;11181;51.002;4.356;2023-02-28T09:24:52;7.30;99.90
22035;DHT22;11181;51.002;4.356;2023-02-28T09:27:19;6.90;99.90
22035;DHT22;11181;51.002;4.356;2023-02-28T09:29:46;6.70;99.90
22035;DHT22;11181;51.002;4.356;2023-02-28T09:32:13;6.70;99.90
22035;DHT22;11181;51.002;4.356;2023-02-28T09:34:41;6.80;99.90
22035;DHT22;11181;51.002;4.356;2023-02-28T09:37:08;7.10;99.90
22035;DHT22;11181;51.002;4.356;2023-02-28T09:39:35;7.10;99.90
22035;DHT22;11181;51.002;4.356;2023-02-28T09:42:03;7.10;99.90
22035;DHT22;11181;51.002;4.356;2023-02-28T09:44:33;7.00;99.90
22035;DHT22;11181;51.002;4.356;2023-02-28T09:47:10;7.20;99.90
22035;DHT22;11181;51.002;4.356;2023-02-28T09:49:42;7.70;99.90
22035;DHT22;11181;51.002;4.356;2023-02-28T09:52:15;8.20;99.90
22035;DHT22;11181;51.002;4.356;2023-02-28T09:54:45;8.50;99.10
22035;DHT22;11181;51.002;4.356;2023-02-28T09:57:17;8.70;97.60
22035;DHT22;11181;51.002;4.356;2023-02-28T09:59:56;8.60;96.30
22035;DHT22;11181;51.002;4.356;2023-02-28T10:02:41;8.40;96.10
22035;DHT22;11181;51.002;4.356;2023-02-28T10:05:15;8.40;96.70
22035;DHT22;11181;51.002;4.356;2023-02-28T10:07:53;8.60;95.70
22035;DHT22;11181;51.002;4.356;2023-02-28T10:10:24;8.70;96.60
22035;DHT22;11181;51.002;4.356;2023-02-28T10:12:54;8.90;96.10
22035;DHT22;11181;51.002;4.356;2023-02-28T10:15:24;8.80;95.70
22035;DHT22;11181;51.002;4.356;2023-02-28T10:17:56;8.90;96.40
22035;DHT22;11181;51.002;4.356;2023-02-28T10:20:25;9.30;96.00
22035;DHT22;11181;51.002;4.356;2023-02-28T10:23:00;9.50;96.60
22035;DHT22;11181;51.002;4.356;2023-02-28T10:25:34;9.50;95.40
22035;DHT22;11181;51.002;4.356;2023-02-28T10:28:05;8.80;96.50
22035;DHT22;11181;51.002;4.356;2023-02-28T10:30:35;8.80;95.10
22035;DHT22;11181;51.002;4.356;2023-02-28T10:33:03;9.00;94.80
22035;DHT22;11181;51.002;4.356;2023-02-28T10:35:31;9.20;95.10
22035;DHT22;11181;51.002;4.356;2023-02-28T10:38:01;9.70;95.40
22035;DHT22;11181;51.002;4.356;2023-02-28T10:40:37;10.30;93.10
22035;DHT22;11181;51.002;4.356;2023-02-28T10:43:06;10.50;92.20
22035;DHT22;11181;51.002;4.356;2023-02-28T10:45:55;10.00;90.50
22035;DHT22;11181;51.002;4.356;2023-02-28T10:48:38;9.00;90.50
22035;DHT22;11181;51.002;4.356;2023-02-28T10:51:08;9.30;91.20
22035;DHT22;11181;51.002;4.356;2023-02-28T10:53:45;9.60;91.10
22035;DHT22;11181;51.002;4.356;2023-02-28T10:56:17;9.70;90.20
22035;DHT22;11181;51.002;4.356;2023-02-28T10:58:55;9.60;90.30
22035;DHT22;11181;51.002;4.356;2023-02-28T11:01:24;9.10;90.10
22035;DHT22;11181;51.002;4.356;2023-02-28T11:03:52;9.40;88.40
22035;DHT22;11181;51.002;4.356;2023-02-28T11:06:23;9.30;88.30
22035;DHT22;11181;51.002;4.356;2023-02-28T11:08:53;9.30;88.30
22035;DHT22;11181;51.002;4.356;2023-02-28T11:11:21;9.30;86.50
22035;DHT22;11181;51.002;4.356;2023-02-28T11:13:52;9.70;86.90
22035;DHT22;11181;51.002;4.356;2023-02-28T11:16:20;10.20;86.60
22035;DHT22;11181;51.002;4.356;2023-02-28T11:18:49;10.00;85.00
22035;DHT22;11181;51.002;4.356;2023-02-28T11:21:23;10.30;84.40
22035;DHT22;11181;51.002;4.356;2023-02-28T11:23:56;10.20;83.70
22035;DHT22;11181;51.002;4.356;2023-02-28T11:26:40;10.50;85.50
22035;DHT22;11181;51.002;4.356;2023-02-28T11:29:17;10.50;81.90
22035;DHT22;11181;51.002;4.356;2023-02-28T11:32:02;10.70;84.30
22035;DHT22;11181;51.002;4.356;2023-02-28T11:34:30;9.80;84.00
22035;DHT22;11181;51.002;4.356;2023-02-28T11:36:59;10.10;87.00
22035;DHT22;11181;51.002;4.356;2023-02-28T11:39:31;10.80;84.70
22035;DHT22;11181;51.002;4.356;2023-02-28T11:42:07;11.30;84.40
22035;DHT22;11181;51.002;4.356;2023-02-28T11:44:56;11.70;81.80
22035;DHT22;11181;51.002;4.356;2023-02-28T11:47:32;10.80;80.20
22035;DHT22;11181;51.002;4.356;2023-02-28T11:50:19;10.40;82.60
22035;DHT22;11181;51.002;4.356;2023-02-28T11:52:53;10.40;80.80
22035;DHT22;11181;51.002;4.356;2023-02-28T11:55:25;10.60;80.40
22035;DHT22;11181;51.002;4.356;2023-02-28T11:58:14;10.50;81.40
22035;DHT22;11181;51.002;4.356;2023-02-28T12:00:59;10.20;78.20
22035;DHT22;11181;51.002;4.356;2023-02-28T12:03:34;9.70;80.70
22035;DHT22;11181;51.002;4.356;2023-02-28T12:06:12;10.30;80.90
22035;DHT22;11181;51.002;4.356;2023-02-28T12:08:49;11.20;80.60
22035;DHT22;11181;51.002;4.356;2023-02-28T12:11:30;11.70;77.80
22035;DHT22;11181;51.002;4.356;2023-02-28T12:17:03;10.60;81.00
22035;DHT22;11181;51.002;4.356;2023-02-28T12:19:45;10.60;81.10
22035;DHT22;11181;51.002;4.356;2023-02-28T12:22:30;11.50;79.20
22035;DHT22;11181;51.002;4.356;2023-02-28T12:28:03;11.20;77.80
22035;DHT22;11181;51.002;4.356;2023-02-28T12:30:33;11.40;76.10
22035;DHT22;11181;51.002;4.356;2023-02-28T12:33:04;11.80;77.40
22035;DHT22;11181;51.002;4.356;2023-02-28T12:35:34;12.10;77.70
22035;DHT22;11181;51.002;4.356;2023-02-28T12:38:08;11.00;74.70
22035;DHT22;11181;51.002;4.356;2023-02-28T12:40:43;10.30;75.70
22035;DHT22;11181;51.002;4.356;2023-02-28T12:43:16;9.70;76.70
22035;DHT22;11181;51.002;4.356;2023-02-28T12:45:46;9.80;75.90
22035;DHT22;11181;51.002;4.356;2023-02-28T12:48:20;9.80;77.20
22035;DHT22;11181;51.002;4.356;2023-02-28T12:50:49;10.30;77.90
22035;DHT22;11181;51.002;4.356;2023-02-28T12:53:21;10.60;76.20
22035;DHT22;11181;51.002;4.356;2023-02-28T12:55:57;10.60;76.40
22035;DHT22;11181;51.002;4.356;2023-02-28T12:58:33;11.10;77.70
22035;DHT22;11181;51.002;4.356;2023-02-28T13:01:20;11.40;76.80
22035;DHT22;11181;51.002;4.356;2023-02-28T13:04:25;11.80;77.50
22035;DHT22;11181;51.002;4.356;2023-02-28T13:07:05;11.90;76.50
22035;DHT22;11181;51.002;4.356;2023-02-28T13:09:34;12.00;76.30
22035;DHT22;11181;51.002;4.356;2023-02-28T13:12:12;11.30;74.00
22035;DHT22;11181;51.002;4.356;2023-02-28T13:14:41;11.00;73.80
22035;DHT22;11181;51.002;4.356;2023-02-28T13:17:14;11.60;74.90
22035;DHT22;11181;51.002;4.356;2023-02-28T13:19:46;11.70;71.90
22035;DHT22;11181;51.002;4.356;2023-02-28T13:22:38;11.50;73.00
22035;DHT22;11181;51.002;4.356;2023-02-28T13:28:13;10.60;72.70
22035;DHT22;11181;51.002;4.356;2023-02-28T13:31:04;10.60;74.20
22035;DHT22;11181;51.002;4.356;2023-02-28T13:33:33;10.00;74.00
22035;DHT22;11181;51.002;4.356;2023-02-28T13:38:55;10.40;77.50
22035;DHT22;11181;51.002;4.356;2023-02-28T13:41:45;10.80;74.50
22035;DHT22;11181;51.002;4.356;2023-02-28T13:44:15;10.60;75.80
22035;DHT22;11181;51.002;4.356;2023-02-28T13:49:47;10.30;75.10
22035;DHT22;11181;51.002;4.356;2023-02-28T13:52:18;10.40;75.60
22035;DHT22;11181;51.002;4.356;2023-02-28T13:55:02;9.90;75.20
22035;DHT22;11181;51.002;4.356;2023-02-28T13:57:47;9.60;78.40
22035;DHT22;11181;51.002;4.356;2023-02-28T14:00:23;10.00;76.50
22035;DHT22;11181;51.002;4.356;2023-02-28T14:03:12;9.90;79.10
22035;DHT22;11181;51.002;4.356;2023-02-28T14:05:43;9.40;77.50
22035;DHT22;11181;51.002;4.356;2023-02-28T14:08:15;9.30;77.30
22035;DHT22;11181;51.002;4.356;2023-02-28T14:10:46;9.20;78.20
22035;DHT22;11181;51.002;4.356;2023-02-28T14:13:38;9.20;78.80
22035;DHT22;11181;51.002;4.356;2023-02-28T14:16:10;9.20;80.30
22035;DHT22;11181;51.002;4.356;2023-02-28T14:18:41;9.20;77.90
22035;DHT22;11181;51.002;4.356;2023-02-28T14:21:14;9.50;78.70
22035;DHT22;11181;51.002;4.356;2023-02-28T14:27:08;10.00;78.80
22035;DHT22;11181;51.002;4.356;2023-02-28T14:29:59;8.90;78.50
22035;DHT22;11181;51.002;4.356;2023-02-28T14:32:30;8.80;79.60
22035;DHT22;11181;51.002;4.356;2023-02-28T14:35:05;8.90;80.00
22035;DHT22;11181;51.002;4.356;2023-02-28T14:37:40;8.70;81.20
22035;DHT22;11181;51.002;4.356;2023-02-28T14:40:12;8.60;80.40
22035;DHT22;11181;51.002;4.356;2023-02-28T14:42:47;8.50;79.70
22035;DHT22;11181;51.002;4.356;2023-02-28T14:45:19;8.30;80.70
22035;DHT22;11181;51.002;4.356;2023-02-28T14:47:46;8.60;82.20
22035;DHT22;11181;51.002;4.356;2023-02-28T14:50:19;8.90;81.30
22035;DHT22;11181;51.002;4.356;2023-02-28T14:52:50;9.30;82.80
22035;DHT22;11181;51.002;4.356;2023-02-28T14:55:19;9.40;80.30
22035;DHT22;11181;51.002;4.356;2023-02-28T14:57:53;9.30;81.30
22035;DHT22;11181;51.002;4.356;2023-02-28T15:00:25;9.20;82.20
22035;DHT22;11181;51.002;4.356;2023-02-28T15:02:53;8.90;80.80
22035;DHT22;11181;51.002;4.356;2023-02-28T15:05:24;8.90;81.40
22035;DHT22;11181;51.002;4.356;2023-02-28T15:08:04;8.90;80.90
22035;DHT22;11181;51.002;4.356;2023-02-28T15:10:32;9.30;81.70
22035;DHT22;11181;51.002;4.356;2023-02-28T15:13:01;9.30;79.70
22035;DHT22;11181;51.002;4.356;2023-02-28T15:15:39;9.30;81.50
22035;DHT22;11181;51.002;4.356;2023-02-28T15:18:14;9.60;81.20
22035;DHT22;11181;51.002;4.356;2023-02-28T15:20:42;9.90;81.60
22035;DHT22;11181;51.002;4.356;2023-02-28T15:23:12;10.00;80.20
22035;DHT22;11181;51.002;4.356;2023-02-28T15:25:40;9.20;81.80
22035;DHT22;11181;51.002;4.356;2023-02-28T15:28:14;8.90;82.80
22035;DHT22;11181;51.002;4.356;2023-02-28T15:30:52;8.90;81.10
22035;DHT22;11181;51.002;4.356;2023-02-28T15:33:21;9.00;83.20
22035;DHT22;11181;51.002;4.356;2023-02-28T15:35:49;8.90;82.70
22035;DHT22;11181;51.002;4.356;2023-02-28T15:38:22;9.10;83.30
22035;DHT22;11181;51.002;4.356;2023-02-28T15:40:51;9.30;82.60
22035;DHT22;11181;51.002;4.356;2023-02-28T15:43:25;9.40;82.20
22035;DHT22;11181;51.002;4.356;2023-02-28T15:45:56;9.70;82.80
22035;DHT22;11181;51.002;4.356;2023-02-28T15:48:27;10.00;82.20
22035;DHT22;11181;51.002;4.356;2023-02-28T15:50:57;9.80;81.40
22035;DHT22;11181;51.002;4.356;2023-02-28T15:53:28;9.60;84.00
22035;DHT22;11181;51.002;4.356;2023-02-28T15:56:01;9.40;83.20
22035;DHT22;11181;51.002;4.356;2023-02-28T15:58:28;9.60;83.90
22035;DHT22;11181;51.002;4.356;2023-02-28T16:01:06;9.90;83.30
22035;DHT22;11181;51.002;4.356;2023-02-28T16:03:43;9.90;81.30
22035;DHT22;11181;51.002;4.356;2023-02-28T16:06:34;9.50;83.50
22035;DHT22;11181;51.002;4.356;2023-02-28T16:09:09;9.10;83.00
22035;DHT22;11181;51.002;4.356;2023-02-28T16:11:40;9.20;83.40
22035;DHT22;11181;51.002;4.356;2023-02-28T16:14:17;9.20;83.40
22035;DHT22;11181;51.002;4.356;2023-02-28T16:16:47;9.80;83.60
22035;DHT22;11181;51.002;4.356;2023-02-28T16:19:15;9.90;83.80
22035;DHT22;11181;51.002;4.356;2023-02-28T16:21:42;9.90;80.40
22035;DHT22;11181;51.002;4.356;2023-02-28T16:24:11;9.60;81.10
22035;DHT22;11181;51.002;4.356;2023-02-28T16:26:40;9.20;81.80
22035;DHT22;11181;51.002;4.356;2023-02-28T16:29:08;9.30;82.10
22035;DHT22;11181;51.002;4.356;2023-02-28T16:31:39;9.30;82.90
22035;DHT22;11181;51.002;4.356;2023-02-28T16:34:06;9.70;84.60